createdAt,value
2022-10-14T00:01:57.814Z,13.90
2022-10-14T00:04:24.565Z,10.40
2022-10-14T00:06:51.235Z,11.15
2022-10-14T00:09:18.120Z,10.90
2022-10-14T00:11:44.999Z,12.80
2022-10-14T00:14:14.691Z,12.15
2022-10-14T00:16:43.395Z,13.10
2022-10-14T00:19:10.866Z,11.82
2022-10-14T00:21:40.185Z,14.93
2022-10-14T00:24:07.638Z,10.77
2022-10-14T00:26:37.146Z,14.93
2022-10-14T00:29:06.631Z,15.77
2022-10-14T00:31:33.647Z,13.25
2022-10-14T00:34:01.017Z,12.00
2022-10-14T00:36:27.876Z,11.73
2022-10-14T00:38:55.223Z,12.73
2022-10-14T00:41:31.227Z,11.73
2022-10-14T00:44:11.454Z,11.07
2022-10-14T00:46:46.055Z,12.00
2022-10-14T00:49:17.088Z,12.82
2022-10-14T00:51:53.004Z,13.60
2022-10-14T00:54:23.157Z,12.50
2022-10-14T00:56:50.765Z,11.10
2022-10-14T00:59:18.079Z,9.60
2022-10-14T01:01:45.322Z,14.13
2022-10-14T01:04:12.079Z,12.35
2022-10-14T01:07:05.883Z,9.77
2022-10-14T01:10:02.945Z,14.40
2022-10-14T01:12:51.623Z,11.55
2022-10-14T01:16:06.247Z,14.55
2022-10-14T01:18:52.035Z,13.57
2022-10-14T01:21:33.692Z,9.18
2022-10-14T01:24:24.842Z,13.50
2022-10-14T01:27:22.323Z,11.35
2022-10-14T01:30:06.072Z,12.32
2022-10-14T01:33:08.070Z,10.85
2022-10-14T01:35:37.791Z,10.32
2022-10-14T01:38:14.429Z,15.23
2022-10-14T01:41:00.124Z,11.90
2022-10-14T01:43:29.865Z,11.98
2022-10-14T01:46:00.025Z,12.35
2022-10-14T01:48:32.734Z,13.38
2022-10-14T01:51:02.786Z,14.95
2022-10-14T01:53:39.042Z,13.20
2022-10-14T01:56:06.921Z,10.50
2022-10-14T01:58:35.010Z,9.30
2022-10-14T02:01:05.994Z,13.88
2022-10-14T02:03:41.315Z,12.02
2022-10-14T02:06:15.669Z,14.70
2022-10-14T02:08:51.789Z,14.27
2022-10-14T02:11:19.833Z,14.93
2022-10-14T02:13:54.606Z,13.23
2022-10-14T02:16:30.386Z,13.43
2022-10-14T02:19:07.487Z,18.83
2022-10-14T02:21:53.893Z,11.13
2022-10-14T02:24:44.456Z,15.00
2022-10-14T02:27:15.569Z,13.57
2022-10-14T02:29:46.222Z,13.32
2022-10-14T02:32:15.965Z,12.25
2022-10-14T02:34:47.329Z,15.38
2022-10-14T02:37:19.253Z,10.07
2022-10-14T02:39:52.191Z,13.18
2022-10-14T02:42:19.286Z,13.82
2022-10-14T02:44:58.106Z,10.85
2022-10-14T02:47:25.483Z,14.07
2022-10-14T02:49:52.709Z,11.60
2022-10-14T02:52:20.284Z,11.20
2022-10-14T02:54:47.185Z,13.40
2022-10-14T02:57:13.869Z,12.23
2022-10-14T02:59:40.622Z,12.98
2022-10-14T03:02:07.827Z,13.38
2022-10-14T03:04:35.324Z,14.60
2022-10-14T03:07:02.568Z,12.75
2022-10-14T03:09:29.490Z,14.15
2022-10-14T03:11:56.405Z,13.50
2022-10-14T03:14:23.145Z,13.32
2022-10-14T03:16:50.026Z,11.85
2022-10-14T03:19:16.683Z,20.90
2022-10-14T03:21:43.505Z,11.43
2022-10-14T03:24:10.300Z,18.60
2022-10-14T03:26:37.021Z,15.10
2022-10-14T03:29:03.864Z,15.30
2022-10-14T03:31:31.741Z,14.43
2022-10-14T03:33:58.412Z,16.05
2022-10-14T03:36:25.141Z,12.85
2022-10-14T03:38:51.798Z,14.95
2022-10-14T03:41:18.510Z,19.50
2022-10-14T03:43:45.242Z,15.32
2022-10-14T03:46:12.027Z,13.25
2022-10-14T03:48:38.699Z,12.23
2022-10-14T03:51:05.358Z,13.00
2022-10-14T03:53:32.084Z,12.15
2022-10-14T03:55:58.745Z,15.48
2022-10-14T03:58:25.644Z,18.38
2022-10-14T04:00:52.476Z,14.65
2022-10-14T04:03:19.181Z,18.73
2022-10-14T04:05:45.944Z,19.77
2022-10-14T04:08:12.722Z,19.10
2022-10-14T04:10:39.453Z,16.77
2022-10-14T04:13:06.158Z,16.52
2022-10-14T04:15:34.760Z,14.90
2022-10-14T04:18:01.405Z,14.80
2022-10-14T04:20:28.114Z,15.45
2022-10-14T04:22:54.903Z,13.48
2022-10-14T04:25:21.632Z,21.02
2022-10-14T04:27:48.533Z,14.93
2022-10-14T04:30:15.457Z,16.48
2022-10-14T04:32:42.209Z,15.95
2022-10-14T04:35:09.872Z,16.48
2022-10-14T04:37:36.662Z,14.77
2022-10-14T04:40:04.009Z,22.95
2022-10-14T04:42:30.890Z,13.45
2022-10-14T04:44:57.559Z,16.30
2022-10-14T04:47:24.447Z,16.55
2022-10-14T04:49:51.142Z,20.80
2022-10-14T04:52:17.846Z,15.90
2022-10-14T04:54:44.537Z,16.05
2022-10-14T04:57:11.669Z,12.05
2022-10-14T04:59:38.429Z,15.45
2022-10-14T05:02:05.188Z,15.82
2022-10-14T05:04:31.992Z,15.85
2022-10-14T05:06:58.844Z,16.70
2022-10-14T05:09:25.586Z,14.93
2022-10-14T05:11:52.299Z,15.00
2022-10-14T05:14:18.954Z,14.25
2022-10-14T05:16:45.673Z,14.15
2022-10-14T05:19:12.338Z,13.88
2022-10-14T05:21:39.020Z,14.05
2022-10-14T05:24:05.883Z,16.20
2022-10-14T05:26:32.706Z,11.02
2022-10-14T05:28:59.405Z,10.00
2022-10-14T05:31:26.101Z,12.27
2022-10-14T05:33:52.750Z,11.30
2022-10-14T05:36:19.427Z,11.27
2022-10-14T05:38:46.104Z,10.40
2022-10-14T05:41:12.799Z,11.85
2022-10-14T05:43:39.410Z,10.55
2022-10-14T05:46:06.108Z,10.63
2022-10-14T05:48:33.894Z,9.95
2022-10-14T05:51:02.487Z,11.40
2022-10-14T05:53:29.501Z,10.43
2022-10-14T05:56:07.458Z,17.92
2022-10-14T05:58:34.691Z,15.18
2022-10-14T06:01:02.652Z,15.30
2022-10-14T06:03:29.900Z,13.15
2022-10-14T06:05:57.038Z,16.13
2022-10-14T06:08:25.110Z,10.90
2022-10-14T06:10:52.792Z,13.50
2022-10-14T06:13:20.479Z,11.95
2022-10-14T06:15:47.264Z,12.27
2022-10-14T06:18:14.208Z,10.60
2022-10-14T06:20:40.897Z,10.48
2022-10-14T06:23:07.607Z,18.02
2022-10-14T06:25:36.162Z,14.50
2022-10-14T06:28:04.538Z,18.45
2022-10-14T06:30:32.286Z,14.93
2022-10-14T06:32:59.039Z,14.52
2022-10-14T06:35:25.725Z,13.65
2022-10-14T06:37:52.449Z,9.13
2022-10-14T06:40:19.142Z,10.55
2022-10-14T06:42:45.869Z,9.43
2022-10-14T06:45:12.552Z,20.60
2022-10-14T06:47:39.273Z,10.07
2022-10-14T06:50:06.511Z,14.30
2022-10-14T06:52:33.309Z,12.27
2022-10-14T06:55:00.100Z,11.18
2022-10-14T06:57:26.877Z,12.77
2022-10-14T06:59:53.562Z,13.13
2022-10-14T07:02:20.558Z,11.73
2022-10-14T07:04:47.770Z,13.73
2022-10-14T07:07:14.530Z,20.20
2022-10-14T07:09:41.223Z,18.77
2022-10-14T07:12:07.916Z,14.43
2022-10-14T07:14:34.682Z,16.33
2022-10-14T07:17:01.541Z,23.92
2022-10-14T07:19:28.257Z,21.85
2022-10-14T07:21:55.030Z,21.02
2022-10-14T07:24:21.774Z,19.77
2022-10-14T07:26:48.498Z,15.52
2022-10-14T07:29:15.198Z,21.48
2022-10-14T07:31:42.145Z,28.92
2022-10-14T07:34:08.878Z,30.38
2022-10-14T07:36:36.131Z,33.03
2022-10-14T07:39:03.010Z,34.10
2022-10-14T07:41:29.748Z,25.48
2022-10-14T07:44:02.894Z,24.08
2022-10-14T07:46:32.335Z,21.48
2022-10-14T07:49:01.343Z,12.38
2022-10-14T07:51:28.639Z,13.38
2022-10-14T07:53:57.457Z,9.50
2022-10-14T07:56:24.596Z,13.60
2022-10-14T07:58:51.338Z,13.50
2022-10-14T08:01:18.810Z,5.97
2022-10-14T08:03:46.752Z,9.85
2022-10-14T08:06:13.852Z,9.30
2022-10-14T08:08:41.140Z,12.20
2022-10-14T08:11:14.025Z,6.97
2022-10-14T08:13:45.042Z,8.43
2022-10-14T08:16:18.682Z,16.92
2022-10-14T08:18:46.911Z,9.02
2022-10-14T08:21:14.846Z,8.27
2022-10-14T08:23:41.684Z,9.68
2022-10-14T08:26:38.802Z,5.47
2022-10-14T08:29:08.166Z,6.78
2022-10-14T08:31:35.182Z,6.40
2022-10-14T08:34:01.937Z,6.28
2022-10-14T08:36:29.150Z,7.13
2022-10-14T08:38:55.920Z,4.22
2022-10-14T08:41:34.745Z,8.77
2022-10-14T08:44:26.843Z,11.18
2022-10-14T08:46:58.225Z,12.45
2022-10-14T08:49:31.902Z,17.17
2022-10-14T08:52:04.014Z,14.03
2022-10-14T08:54:44.671Z,21.38
2022-10-14T08:57:21.106Z,13.27
2022-10-14T08:59:48.100Z,16.85
2022-10-14T09:02:32.916Z,25.55
2022-10-14T09:07:26.727Z,28.42
2022-10-14T09:09:57.622Z,19.17
2022-10-14T09:12:29.601Z,20.33
2022-10-14T09:15:06.566Z,13.38
2022-10-14T09:17:40.313Z,16.02
2022-10-14T09:20:21.318Z,12.20
2022-10-14T09:23:02.300Z,20.73
2022-10-14T09:25:31.246Z,14.98
2022-10-14T09:27:57.991Z,14.38
2022-10-14T09:30:24.708Z,24.50
2022-10-14T09:32:54.581Z,10.35
2022-10-14T09:35:35.053Z,16.05
2022-10-14T09:38:01.886Z,8.88
2022-10-14T09:40:35.849Z,8.43
2022-10-14T09:43:08.650Z,4.47
2022-10-14T09:46:01.403Z,4.68
2022-10-14T09:48:44.577Z,4.50
2022-10-14T09:51:21.198Z,3.53
2022-10-14T09:53:54.104Z,4.35
2022-10-14T09:56:41.891Z,4.72
2022-10-14T09:59:22.570Z,3.72
2022-10-14T10:01:54.800Z,5.20
2022-10-14T10:04:42.018Z,8.20
2022-10-14T10:07:24.399Z,3.72
2022-10-14T10:09:56.666Z,8.25
2022-10-14T10:12:29.079Z,5.32
2022-10-14T10:14:58.576Z,5.63
2022-10-14T10:17:27.766Z,8.27
2022-10-14T10:20:42.737Z,7.03
2022-10-14T10:23:27.112Z,3.42
2022-10-14T10:25:53.769Z,2.35
2022-10-14T10:28:31.815Z,3.80
2022-10-14T10:34:30.038Z,7.72
2022-10-14T10:37:22.961Z,3.80
2022-10-14T10:40:05.607Z,3.13
2022-10-14T10:42:34.643Z,4.30
2022-10-14T10:45:36.433Z,4.10
2022-10-14T10:48:12.611Z,3.28
2022-10-14T10:50:55.940Z,5.75
2022-10-14T10:53:43.711Z,4.40
2022-10-14T10:56:33.708Z,5.20
2022-10-14T10:59:10.381Z,4.07
2022-10-14T11:01:53.786Z,3.35
2022-10-14T11:04:26.416Z,5.38
2022-10-14T11:07:18.723Z,3.55
2022-10-14T11:10:18.992Z,5.50
2022-10-14T11:13:17.559Z,4.82
2022-10-14T11:15:55.057Z,5.07
2022-10-14T11:18:24.753Z,6.43
2022-10-14T11:21:22.632Z,5.28
2022-10-14T11:26:48.922Z,6.35
2022-10-14T11:29:36.717Z,6.30
2022-10-14T11:32:30.575Z,7.60
2022-10-14T11:35:25.328Z,5.03
2022-10-14T11:38:24.947Z,7.88
2022-10-14T11:41:20.477Z,5.93
2022-10-14T11:44:09.229Z,8.05
2022-10-14T11:46:46.427Z,7.20
2022-10-14T11:49:32.512Z,7.85
2022-10-14T11:52:07.797Z,4.65
2022-10-14T11:54:44.137Z,5.05
2022-10-14T11:57:14.250Z,4.50
2022-10-14T12:00:04.473Z,7.07
2022-10-14T12:02:52.996Z,5.85
2022-10-14T12:05:30.240Z,6.03
2022-10-14T12:08:15.644Z,8.32
2022-10-14T12:10:46.885Z,7.97
2022-10-14T12:13:19.873Z,5.03
2022-10-14T12:15:52.471Z,5.65
2022-10-14T12:18:22.871Z,6.90
2022-10-14T12:20:59.258Z,9.98
2022-10-14T12:23:38.616Z,8.27
2022-10-14T12:26:27.724Z,9.25
2022-10-14T12:28:55.442Z,11.32
2022-10-14T12:31:38.515Z,9.88
2022-10-14T12:34:11.354Z,4.20
2022-10-14T12:36:43.282Z,7.18
2022-10-14T12:39:19.259Z,10.73
2022-10-14T12:41:56.016Z,6.43
2022-10-14T12:44:27.768Z,4.03
2022-10-14T12:46:54.576Z,4.22
2022-10-14T12:49:30.086Z,5.13
2022-10-14T12:52:03.527Z,7.00
2022-10-14T12:54:32.074Z,6.07
2022-10-14T12:57:31.984Z,7.55
2022-10-14T13:00:02.036Z,12.40
2022-10-14T13:02:38.643Z,7.82
2022-10-14T13:05:09.234Z,10.65
2022-10-14T13:07:43.879Z,9.45
2022-10-14T13:10:29.993Z,7.75
2022-10-14T13:12:56.920Z,6.80
2022-10-14T13:15:34.295Z,5.05
2022-10-14T13:18:36.134Z,6.97
2022-10-14T13:21:04.509Z,8.73
2022-10-14T13:23:31.252Z,8.98
2022-10-14T13:26:24.016Z,6.80
2022-10-14T13:29:12.404Z,6.85
2022-10-14T13:32:06.207Z,7.20
2022-10-14T13:34:48.056Z,10.57
2022-10-14T13:37:43.420Z,8.13
2022-10-14T13:40:30.373Z,5.90
2022-10-14T13:42:59.392Z,6.18
2022-10-14T13:45:45.451Z,8.60
2022-10-14T13:48:34.739Z,7.55
2022-10-14T13:51:31.515Z,7.57
2022-10-14T13:54:20.436Z,12.55
2022-10-14T13:57:47.950Z,7.10
2022-10-14T14:00:42.643Z,7.68
2022-10-14T14:03:30.340Z,5.43
2022-10-14T14:05:58.930Z,7.35
2022-10-14T14:08:40.439Z,6.60
2022-10-14T14:11:16.793Z,9.90
2022-10-14T14:13:57.546Z,9.32
2022-10-14T14:16:33.721Z,6.80
2022-10-14T14:19:08.388Z,8.45
2022-10-14T14:21:36.047Z,8.43
2022-10-14T14:24:29.631Z,10.18
2022-10-14T14:26:56.640Z,9.98
2022-10-14T14:29:28.096Z,5.35
2022-10-14T14:32:12.591Z,12.55
2022-10-14T14:34:42.604Z,6.45
2022-10-14T14:37:55.068Z,10.60
2022-10-14T14:40:20.670Z,9.48
2022-10-14T14:42:52.566Z,8.63
2022-10-14T14:45:43.754Z,6.03
2022-10-14T14:48:12.929Z,10.40
2022-10-14T14:50:43.393Z,20.75
2022-10-14T14:53:23.877Z,11.57
2022-10-14T14:55:53.667Z,10.68
2022-10-14T14:58:28.143Z,9.90
2022-10-14T15:00:55.435Z,11.98
2022-10-14T15:03:24.961Z,8.05
2022-10-14T15:05:55.730Z,9.98
2022-10-14T15:08:25.420Z,7.60
2022-10-14T15:10:55.301Z,9.85
2022-10-14T15:13:28.902Z,8.63
2022-10-14T15:15:55.739Z,9.75
2022-10-14T15:18:28.028Z,6.20
2022-10-14T15:21:14.992Z,5.25
2022-10-14T15:23:43.332Z,8.55
2022-10-14T15:26:23.204Z,8.93
2022-10-14T15:32:07.773Z,9.65
2022-10-14T15:34:35.761Z,7.55
2022-10-14T15:37:02.788Z,9.63
2022-10-14T15:39:29.491Z,15.48
2022-10-14T15:41:56.285Z,7.40
2022-10-14T15:44:23.020Z,10.30
2022-10-14T15:47:08.814Z,12.57
2022-10-14T15:49:42.067Z,13.15
2022-10-14T15:52:14.248Z,15.70
2022-10-14T15:54:41.163Z,10.40
2022-10-14T15:57:10.044Z,12.70
2022-10-14T15:59:39.297Z,11.10
2022-10-14T16:02:23.055Z,12.85
2022-10-14T16:05:15.062Z,10.10
2022-10-14T16:07:39.248Z,18.70
2022-10-14T16:10:08.357Z,12.90
2022-10-14T16:12:35.529Z,9.60
2022-10-14T16:15:02.573Z,7.85
2022-10-14T16:17:29.453Z,14.57
2022-10-14T16:19:56.110Z,8.70
2022-10-14T16:22:22.841Z,9.38
2022-10-14T16:24:49.715Z,9.30
2022-10-14T16:27:16.810Z,6.82
2022-10-14T16:29:43.466Z,8.27
2022-10-14T16:32:12.573Z,9.40
2022-10-14T16:34:39.224Z,10.52
2022-10-14T16:37:07.308Z,9.95
2022-10-14T16:39:33.965Z,14.02
2022-10-14T16:42:00.839Z,10.25
2022-10-14T16:44:27.824Z,13.27
2022-10-14T16:47:14.763Z,11.27
2022-10-14T16:49:43.128Z,9.88
2022-10-14T16:52:10.052Z,12.00
2022-10-14T16:54:36.737Z,13.10
2022-10-14T16:57:04.766Z,25.00
2022-10-14T16:59:32.109Z,14.40
2022-10-14T17:01:59.612Z,11.98
2022-10-14T17:04:26.863Z,15.80
2022-10-14T17:06:54.830Z,19.65
2022-10-14T17:09:21.974Z,13.35
2022-10-14T17:11:50.081Z,9.88
2022-10-14T17:14:19.185Z,12.93
2022-10-14T17:16:50.384Z,8.55
2022-10-14T17:19:17.239Z,9.20
2022-10-14T17:21:44.135Z,9.95
2022-10-14T17:24:10.809Z,11.45
2022-10-14T17:26:37.441Z,12.18
2022-10-14T17:29:04.292Z,17.88
2022-10-14T17:31:30.975Z,26.48
2022-10-14T17:33:59.248Z,33.45
2022-10-14T17:36:28.152Z,13.25
2022-10-14T17:38:57.206Z,9.45
2022-10-14T17:41:26.011Z,12.00
2022-10-14T17:43:54.367Z,9.73
2022-10-14T17:46:23.477Z,12.13
2022-10-14T17:48:51.902Z,11.93
2022-10-14T17:51:25.241Z,11.57
2022-10-14T17:53:57.152Z,10.23
2022-10-14T17:56:24.493Z,13.95
2022-10-14T17:58:59.604Z,10.73
2022-10-14T18:01:37.494Z,10.40
2022-10-14T18:04:13.990Z,12.95
2022-10-14T18:06:45.315Z,14.13
2022-10-14T18:09:12.902Z,11.68
2022-10-14T18:14:30.341Z,14.75
2022-10-14T18:16:59.159Z,20.38
2022-10-14T18:19:26.585Z,14.27
2022-10-14T18:21:53.249Z,18.25
2022-10-14T18:24:20.469Z,17.60
2022-10-14T18:26:50.334Z,15.52
2022-10-14T18:29:17.065Z,12.88
2022-10-14T18:31:43.833Z,15.38
2022-10-14T18:34:11.720Z,14.52
2022-10-14T18:36:38.735Z,13.95
2022-10-14T18:39:08.257Z,18.60
2022-10-14T18:41:37.101Z,14.18
2022-10-14T18:44:05.097Z,13.82
2022-10-14T18:46:36.876Z,12.50
2022-10-14T18:49:06.621Z,13.93
2022-10-14T18:51:36.717Z,13.90
2022-10-14T18:54:08.322Z,16.98
2022-10-14T18:56:38.717Z,13.80
2022-10-14T18:59:09.078Z,18.00
2022-10-14T19:01:37.263Z,14.07
2022-10-14T19:04:06.288Z,13.60
2022-10-14T19:06:33.955Z,12.38
2022-10-14T19:09:01.665Z,11.68
2022-10-14T19:11:30.635Z,12.38
2022-10-14T19:13:59.001Z,12.32
2022-10-14T19:16:31.043Z,16.15
2022-10-14T19:19:15.129Z,14.13
2022-10-14T19:21:43.396Z,11.07
2022-10-14T19:24:12.004Z,12.25
2022-10-14T19:26:44.786Z,11.25
2022-10-14T19:29:13.813Z,11.68
2022-10-14T19:31:41.625Z,9.52
2022-10-14T19:34:11.639Z,10.73
2022-10-14T19:36:39.496Z,19.42
2022-10-14T19:39:08.777Z,12.40
2022-10-14T19:41:43.192Z,12.35
2022-10-14T19:44:11.101Z,12.57
2022-10-14T19:46:38.107Z,10.93
2022-10-14T19:49:05.056Z,10.95
2022-10-14T19:51:33.430Z,11.00
2022-10-14T19:54:00.263Z,9.38
2022-10-14T19:56:28.011Z,10.38
2022-10-14T19:58:57.285Z,9.48
2022-10-14T20:01:27.369Z,10.45
2022-10-14T20:03:54.519Z,9.55
2022-10-14T20:06:22.632Z,8.77
2022-10-14T20:08:49.964Z,11.73
2022-10-14T20:11:19.051Z,10.93
2022-10-14T20:13:46.323Z,7.72
2022-10-14T20:16:13.734Z,8.98
2022-10-14T20:18:40.832Z,8.68
2022-10-14T20:21:08.724Z,7.80
2022-10-14T20:23:38.239Z,8.85
2022-10-14T20:26:17.838Z,8.60
2022-10-14T20:28:44.796Z,7.53
2022-10-14T20:31:14.816Z,7.70
2022-10-14T20:33:41.748Z,7.13
2022-10-14T20:36:19.728Z,9.02
2022-10-14T20:38:47.685Z,4.95
2022-10-14T20:41:17.579Z,6.05
2022-10-14T20:43:45.223Z,6.07
2022-10-14T20:46:12.289Z,6.47
2022-10-14T20:48:39.081Z,8.07
2022-10-14T20:51:12.075Z,7.00
2022-10-14T20:53:38.801Z,9.07
2022-10-14T20:56:08.447Z,9.30
2022-10-14T20:58:35.784Z,4.25
2022-10-14T21:01:13.269Z,6.05
2022-10-14T21:03:41.045Z,5.78
2022-10-14T21:06:10.282Z,5.30
2022-10-14T21:08:37.878Z,4.95
2022-10-14T21:11:10.540Z,4.05
2022-10-14T21:13:42.923Z,5.55
2022-10-14T21:16:17.057Z,5.15
2022-10-14T21:18:55.255Z,4.38
2022-10-14T21:21:27.245Z,4.45
2022-10-14T21:23:55.197Z,9.32
2022-10-14T21:26:22.564Z,3.67
2022-10-14T21:28:49.453Z,4.85
2022-10-14T21:31:18.962Z,4.50
2022-10-14T21:33:59.880Z,3.42
2022-10-14T21:36:29.813Z,3.80
2022-10-14T21:39:01.368Z,3.40
2022-10-14T21:41:28.489Z,5.22
2022-10-14T21:43:59.382Z,5.25
2022-10-14T21:46:26.861Z,6.50
2022-10-14T21:48:57.608Z,4.07
2022-10-14T21:51:30.113Z,6.60
2022-10-14T21:53:57.828Z,4.03
2022-10-14T21:56:28.499Z,4.78
2022-10-14T21:58:55.588Z,3.22
2022-10-14T22:01:26.192Z,3.78
2022-10-14T22:03:55.168Z,4.05
2022-10-14T22:06:24.793Z,6.25
2022-10-14T22:08:53.695Z,4.15
2022-10-14T22:11:24.910Z,4.15
2022-10-14T22:13:55.696Z,4.07
2022-10-14T22:16:23.122Z,3.70
2022-10-14T22:18:54.675Z,3.58
2022-10-14T22:21:24.634Z,3.95
2022-10-14T22:23:52.273Z,4.28
2022-10-14T22:26:23.055Z,2.63
2022-10-14T22:28:50.770Z,3.75
2022-10-14T22:31:20.263Z,5.05
2022-10-14T22:33:48.280Z,3.67
2022-10-14T22:36:23.552Z,3.42
2022-10-14T22:38:56.361Z,2.80
2022-10-14T22:41:24.530Z,3.35
2022-10-14T22:44:08.672Z,3.50
2022-10-14T22:46:43.493Z,6.28
2022-10-14T22:49:18.467Z,3.92
2022-10-14T22:51:48.821Z,4.18
2022-10-14T22:54:18.407Z,3.38
2022-10-14T22:57:24.669Z,3.85
2022-10-14T23:00:00.726Z,3.78
2022-10-14T23:02:44.012Z,4.95
2022-10-14T23:05:25.097Z,4.82
2022-10-14T23:08:06.518Z,6.15
2022-10-14T23:10:33.326Z,4.60
2022-10-14T23:13:00.145Z,4.10
2022-10-14T23:15:26.933Z,4.75
2022-10-14T23:17:53.850Z,8.18
2022-10-14T23:20:20.959Z,4.95
2022-10-14T23:22:47.815Z,7.68
2022-10-14T23:25:14.892Z,5.18
2022-10-14T23:27:41.783Z,5.15
2022-10-14T23:30:09.029Z,6.80
2022-10-14T23:32:35.906Z,4.60
2022-10-14T23:35:02.833Z,6.25
2022-10-14T23:37:30.008Z,9.40
2022-10-14T23:39:56.786Z,6.43
2022-10-14T23:42:23.538Z,5.40
2022-10-14T23:44:50.263Z,7.60
2022-10-14T23:47:16.957Z,6.22
2022-10-14T23:49:43.656Z,7.15
2022-10-14T23:52:10.395Z,7.70
2022-10-14T23:54:37.104Z,6.88
2022-10-14T23:57:03.844Z,5.38
2022-10-14T23:59:30.566Z,5.63
